sensor_id;sensor_type;location;lat;lon;timestamp;pressure;altitude;pressure_sealevel;temperature;humidity
7105;BME280;3594;42.152;24.714;2023-11-21T00:00:44;60419.50;;;7.28;nan
7105;BME280;3594;42.152;24.714;2023-11-21T00:03:11;60453.88;;;7.31;nan
7105;BME280;3594;42.152;24.714;2023-11-21T00:05:36;60410.97;;;7.34;nan
7105;BME280;3594;42.152;24.714;2023-11-21T00:08:02;60420.69;;;7.20;nan
7105;BME280;3594;42.152;24.714;2023-11-21T00:10:27;60359.88;;;7.06;nan
7105;BME280;3594;42.152;24.714;2023-11-21T00:12:53;60456.25;;;7.20;nan
7105;BME280;3594;42.152;24.714;2023-11-21T00:15:20;60404.41;;;7.09;nan
7105;BME280;3594;42.152;24.714;2023-11-21T00:17:46;60390.22;;;6.85;nan
7105;BME280;3594;42.152;24.714;2023-11-21T00:20:12;60427.63;;;6.98;nan
7105;BME280;3594;42.152;24.714;2023-11-21T00:22:38;60442.09;;;7.25;nan
7105;BME280;3594;42.152;24.714;2023-11-21T00:25:05;60243.50;;;6.95;nan
7105;BME280;3594;42.152;24.714;2023-11-21T00:27:31;60431.75;;;7.14;nan
7105;BME280;3594;42.152;24.714;2023-11-21T00:29:56;60490.44;;;6.68;nan
7105;BME280;3594;42.152;24.714;2023-11-21T00:32:22;60386.06;;;6.79;nan
7105;BME280;3594;42.152;24.714;2023-11-21T00:34:47;60296.97;;;6.77;nan
7105;BME280;3594;42.152;24.714;2023-11-21T00:37:14;60326.56;;;6.78;nan
7105;BME280;3594;42.152;24.714;2023-11-21T00:39:39;60352.84;;;6.72;nan
7105;BME280;3594;42.152;24.714;2023-11-21T00:42:05;60371.34;;;6.50;nan
7105;BME280;3594;42.152;24.714;2023-11-21T00:44:30;60378.81;;;6.68;nan
7105;BME280;3594;42.152;24.714;2023-11-21T00:46:56;60317.06;;;6.35;nan
7105;BME280;3594;42.152;24.714;2023-11-21T00:49:21;60328.28;;;6.41;nan
7105;BME280;3594;42.152;24.714;2023-11-21T00:51:47;60256.69;;;6.45;nan
7105;BME280;3594;42.152;24.714;2023-11-21T00:54:12;60304.56;;;6.47;nan
7105;BME280;3594;42.152;24.714;2023-11-21T00:56:38;60247.78;;;5.98;nan
7105;BME280;3594;42.152;24.714;2023-11-21T00:59:03;60115.19;;;5.65;nan
7105;BME280;3594;42.152;24.714;2023-11-21T01:01:30;59984.53;;;5.50;nan
7105;BME280;3594;42.152;24.714;2023-11-21T01:03:55;60166.09;;;5.72;nan
7105;BME280;3594;42.152;24.714;2023-11-21T01:06:22;60126.50;;;5.61;nan
7105;BME280;3594;42.152;24.714;2023-11-21T01:08:47;60025.84;;;5.78;nan
7105;BME280;3594;42.152;24.714;2023-11-21T01:11:13;60067.19;;;5.81;nan
7105;BME280;3594;42.152;24.714;2023-11-21T01:13:39;60020.13;;;5.61;nan
7105;BME280;3594;42.152;24.714;2023-11-21T01:16:05;60088.16;;;5.68;nan
7105;BME280;3594;42.152;24.714;2023-11-21T01:18:36;60076.03;;;5.73;nan
7105;BME280;3594;42.152;24.714;2023-11-21T01:21:02;60129.50;;;6.01;nan
7105;BME280;3594;42.152;24.714;2023-11-21T01:23:27;60123.75;;;5.84;nan
7105;BME280;3594;42.152;24.714;2023-11-21T01:25:55;60150.13;;;5.94;nan
7105;BME280;3594;42.152;24.714;2023-11-21T01:28:21;60096.19;;;5.82;nan
7105;BME280;3594;42.152;24.714;2023-11-21T01:30:46;60072.41;;;5.67;nan
7105;BME280;3594;42.152;24.714;2023-11-21T01:33:11;60051.13;;;5.87;nan
7105;BME280;3594;42.152;24.714;2023-11-21T01:35:37;60030.00;;;5.84;nan
7105;BME280;3594;42.152;24.714;2023-11-21T01:38:02;59961.91;;;5.36;nan
7105;BME280;3594;42.152;24.714;2023-11-21T01:40:29;59979.38;;;5.79;nan
7105;BME280;3594;42.152;24.714;2023-11-21T01:42:55;60014.50;;;5.61;nan
7105;BME280;3594;42.152;24.714;2023-11-21T01:45:21;60073.91;;;5.87;nan
7105;BME280;3594;42.152;24.714;2023-11-21T01:47:46;60159.09;;;5.98;nan
7105;BME280;3594;42.152;24.714;2023-11-21T01:50:15;60125.25;;;6.04;nan
7105;BME280;3594;42.152;24.714;2023-11-21T01:52:42;60086.69;;;5.73;nan
7105;BME280;3594;42.152;24.714;2023-11-21T01:55:09;60067.19;;;5.81;nan
7105;BME280;3594;42.152;24.714;2023-11-21T01:57:36;60024.63;;;5.86;nan
7105;BME280;3594;42.152;24.714;2023-11-21T02:00:03;60063.94;;;5.69;nan
7105;BME280;3594;42.152;24.714;2023-11-21T02:02:43;60065.66;;;5.66;nan
7105;BME280;3594;42.152;24.714;2023-11-21T02:05:10;60067.13;;;5.60;nan
7105;BME280;3594;42.152;24.714;2023-11-21T02:07:39;60084.66;;;5.78;nan
7105;BME280;3594;42.152;24.714;2023-11-21T02:10:05;60109.19;;;5.75;nan
7105;BME280;3594;42.152;24.714;2023-11-21T02:12:31;60107.41;;;5.88;nan
7105;BME280;3594;42.152;24.714;2023-11-21T02:14:56;60065.84;;;5.77;nan
7105;BME280;3594;42.152;24.714;2023-11-21T02:17:22;59990.50;;;5.44;nan
7105;BME280;3594;42.152;24.714;2023-11-21T02:19:47;60016.47;;;5.60;nan
7105;BME280;3594;42.152;24.714;2023-11-21T02:22:17;60023.53;;;5.60;nan
7105;BME280;3594;42.152;24.714;2023-11-21T02:24:45;59989.56;;;5.54;nan
7105;BME280;3594;42.152;24.714;2023-11-21T02:27:13;60023.69;;;5.71;nan
7105;BME280;3594;42.152;24.714;2023-11-21T02:29:38;60057.47;;;5.70;nan
7105;BME280;3594;42.152;24.714;2023-11-21T02:32:04;60030.91;;;5.53;nan
7105;BME280;3594;42.152;24.714;2023-11-21T02:34:29;59948.59;;;5.19;nan
7105;BME280;3594;42.152;24.714;2023-11-21T02:36:54;59959.81;;;5.46;nan
7105;BME280;3594;42.152;24.714;2023-11-21T02:39:20;59724.56;;;5.16;nan
7105;BME280;3594;42.152;24.714;2023-11-21T02:41:47;59622.47;;;5.33;nan
7105;BME280;3594;42.152;24.714;2023-11-21T02:44:13;59250.84;;;5.27;nan
7105;BME280;3594;42.152;24.714;2023-11-21T02:46:38;58610.66;;;5.53;nan
7105;BME280;3594;42.152;24.714;2023-11-21T02:49:05;58265.34;;;5.30;nan
7105;BME280;3594;42.152;24.714;2023-11-21T02:51:36;58071.13;;;5.69;nan
7105;BME280;3594;42.152;24.714;2023-11-21T02:54:03;57895.59;;;5.32;nan
7105;BME280;3594;42.152;24.714;2023-11-21T02:56:32;56852.31;;;5.29;nan
7105;BME280;3594;42.152;24.714;2023-11-21T02:58:59;52333.06;;;4.95;nan
7105;BME280;3594;42.152;24.714;2023-11-21T03:01:26;48419.41;;;5.13;nan
7105;BME280;3594;42.152;24.714;2023-11-21T03:03:51;41660.91;;;4.95;nan
7105;BME280;3594;42.152;24.714;2023-11-21T03:06:18;36902.25;;;4.82;nan
7105;BME280;3594;42.152;24.714;2023-11-21T03:08:43;35618.81;;;4.86;nan
7105;BME280;3594;42.152;24.714;2023-11-21T03:11:09;33368.53;;;4.84;nan
7105;BME280;3594;42.152;24.714;2023-11-21T03:13:34;32715.34;;;4.68;nan
7105;BME280;3594;42.152;24.714;2023-11-21T03:16:00;32100.38;;;5.10;nan
7105;BME280;3594;42.152;24.714;2023-11-21T03:18:25;31766.69;;;4.90;nan
7105;BME280;3594;42.152;24.714;2023-11-21T03:20:52;30814.47;;;5.08;nan
7105;BME280;3594;42.152;24.714;2023-11-21T03:23:17;29524.03;;;4.98;nan
7105;BME280;3594;42.152;24.714;2023-11-21T03:25:43;28564.38;;;5.03;nan
7105;BME280;3594;42.152;24.714;2023-11-21T03:28:09;21826.06;;;4.87;nan
7105;BME280;3594;42.152;24.714;2023-11-21T03:30:34;20222.06;;;4.78;nan
7105;BME280;3594;42.152;24.714;2023-11-21T03:32:59;17975.03;;;4.58;nan
7105;BME280;3594;42.152;24.714;2023-11-21T03:35:25;14787.44;;;4.77;nan
7105;BME280;3594;42.152;24.714;2023-11-21T03:37:51;13508.13;;;4.71;nan
7105;BME280;3594;42.152;24.714;2023-11-21T03:40:17;7122.31;;;4.38;nan
7105;BME280;3594;42.152;24.714;2023-11-21T03:42:42;4256.69;;;4.33;nan
7105;BME280;3594;42.152;24.714;2023-11-21T03:45:08;2988.38;;;4.58;nan
7105;BME280;3594;42.152;24.714;2023-11-21T03:47:34;2032.78;;;4.49;nan
7105;BME280;3594;42.152;24.714;2023-11-21T03:50:00;757.13;;;4.17;nan
7105;BME280;3594;42.152;24.714;2023-11-21T03:52:26;-194.16;;;4.33;nan
7105;BME280;3594;42.152;24.714;2023-11-21T03:54:52;-513.78;;;4.14;nan
7105;BME280;3594;42.152;24.714;2023-11-21T03:57:18;-1147.59;;;4.28;nan
7105;BME280;3594;42.152;24.714;2023-11-21T03:59:43;-2100.53;;;4.24;nan
7105;BME280;3594;42.152;24.714;2023-11-21T04:02:09;-2417.94;;;4.25;nan
7105;BME280;3594;42.152;24.714;2023-11-21T04:04:35;-3052.19;;;4.35;nan
7105;BME280;3594;42.152;24.714;2023-11-21T04:07:01;-3370.22;;;4.24;nan
7105;BME280;3594;42.152;24.714;2023-11-21T04:09:26;-3371.41;;;4.02;nan
7105;BME280;3594;42.152;24.714;2023-11-21T04:11:52;-3370.59;;;4.17;nan
7105;BME280;3594;42.152;24.714;2023-11-21T04:14:18;-3371.13;;;4.07;nan
7105;BME280;3594;42.152;24.714;2023-11-21T04:16:43;-4006.84;;;3.78;nan
7105;BME280;3594;42.152;24.714;2023-11-21T04:19:09;-4958.47;;;3.56;nan
7105;BME280;3594;42.152;24.714;2023-11-21T04:21:36;-5591.88;;;3.69;nan
7105;BME280;3594;42.152;24.714;2023-11-21T04:24:02;-5908.75;;;3.66;nan
7105;BME280;3594;42.152;24.714;2023-11-21T04:26:28;-6225.34;;;3.92;nan
7105;BME280;3594;42.152;24.714;2023-11-21T04:28:53;-7809.25;;;3.79;nan
7105;BME280;3594;42.152;24.714;2023-11-21T04:31:18;-8125.84;;;3.76;nan
7105;BME280;3594;42.152;24.714;2023-11-21T04:33:44;-8442.91;;;3.91;nan
7105;BME280;3594;42.152;24.714;2023-11-21T04:36:10;-8125.50;;;3.61;nan
7105;BME280;3594;42.152;24.714;2023-11-21T04:38:36;-8125.38;;;3.55;nan
7105;BME280;3594;42.152;24.714;2023-11-21T04:41:01;-7492.13;;;3.47;nan
7105;BME280;3594;42.152;24.714;2023-11-21T04:43:27;-7492.00;;;3.39;nan
7105;BME280;3594;42.152;24.714;2023-11-21T04:45:52;-7808.44;;;3.35;nan
7105;BME280;3594;42.152;24.714;2023-11-21T04:48:17;-7491.97;;;3.37;nan
7105;BME280;3594;42.152;24.714;2023-11-21T04:50:43;-8125.41;;;3.58;nan
7105;BME280;3594;42.152;24.714;2023-11-21T04:53:08;-8125.38;;;3.56;nan
7105;BME280;3594;42.152;24.714;2023-11-21T04:55:34;-7809.06;;;3.69;nan
7105;BME280;3594;42.152;24.714;2023-11-21T04:57:59;-7492.44;;;3.70;nan
7105;BME280;3594;42.152;24.714;2023-11-21T05:00:25;-7492.53;;;3.78;nan
7105;BME280;3594;42.152;24.714;2023-11-21T05:02:51;-7175.63;;;3.54;nan
7105;BME280;3594;42.152;24.714;2023-11-21T05:05:17;-7175.78;;;3.73;nan
7105;BME280;3594;42.152;24.714;2023-11-21T05:07:42;-5592.00;;;3.62;nan
7105;BME280;3594;42.152;24.714;2023-11-21T05:10:08;-4959.38;;;3.23;nan
7105;BME280;3594;42.152;24.714;2023-11-21T05:12:37;-5275.47;;;3.48;nan
7105;BME280;3594;42.152;24.714;2023-11-21T05:15:07;-4958.63;;;3.50;nan
7105;BME280;3594;42.152;24.714;2023-11-21T05:17:35;-4959.22;;;3.29;nan
7105;BME280;3594;42.152;24.714;2023-11-21T05:20:00;-4958.81;;;3.44;nan
7105;BME280;3594;42.152;24.714;2023-11-21T05:22:28;-4641.84;;;3.49;nan
7105;BME280;3594;42.152;24.714;2023-11-21T05:24:54;-4642.84;;;3.19;nan
7105;BME280;3594;42.152;24.714;2023-11-21T05:27:19;-4959.38;;;3.23;nan
7105;BME280;3594;42.152;24.714;2023-11-21T05:29:45;-4958.94;;;3.39;nan
7105;BME280;3594;42.152;24.714;2023-11-21T05:32:10;-4958.78;;;3.45;nan
7105;BME280;3594;42.152;24.714;2023-11-21T05:34:38;-4642.31;;;3.35;nan
7105;BME280;3594;42.152;24.714;2023-11-21T05:37:03;-4641.72;;;3.52;nan
7105;BME280;3594;42.152;24.714;2023-11-21T05:39:30;-4008.06;;;3.50;nan
7105;BME280;3594;42.152;24.714;2023-11-21T05:41:57;-3374.28;;;3.48;nan
7105;BME280;3594;42.152;24.714;2023-11-21T05:44:23;-2423.75;;;3.41;nan
7105;BME280;3594;42.152;24.714;2023-11-21T05:46:50;-2740.44;;;3.46;nan
7105;BME280;3594;42.152;24.714;2023-11-21T05:49:15;-3374.72;;;3.40;nan
7105;BME280;3594;42.152;24.714;2023-11-21T05:51:41;-3690.78;;;3.58;nan
7105;BME280;3594;42.152;24.714;2023-11-21T05:54:07;-3691.84;;;3.35;nan
7105;BME280;3594;42.152;24.714;2023-11-21T05:56:33;-3057.53;;;3.44;nan
7105;BME280;3594;42.152;24.714;2023-11-21T05:58:59;-3056.28;;;3.66;nan
7105;BME280;3594;42.152;24.714;2023-11-21T06:01:25;-3055.53;;;3.78;nan
7105;BME280;3594;42.152;24.714;2023-11-21T06:03:53;-2420.88;;;3.83;nan
7105;BME280;3594;42.152;24.714;2023-11-21T06:06:19;-1467.28;;;4.04;nan
7105;BME280;3594;42.152;24.714;2023-11-21T06:08:48;-512.75;;;4.24;nan
7105;BME280;3594;42.152;24.714;2023-11-21T06:11:14;-193.25;;;4.42;nan
7105;BME280;3594;42.152;24.714;2023-11-21T06:13:39;-509.50;;;4.57;nan
7105;BME280;3594;42.152;24.714;2023-11-21T06:16:05;-508.69;;;4.65;nan
7105;BME280;3594;42.152;24.714;2023-11-21T06:18:31;447.06;;;4.82;nan
7105;BME280;3594;42.152;24.714;2023-11-21T06:20:56;445.75;;;4.71;nan
7105;BME280;3594;42.152;24.714;2023-11-21T06:23:21;1722.47;;;5.05;nan
7105;BME280;3594;42.152;24.714;2023-11-21T06:25:47;4905.03;;;4.96;nan
7105;BME280;3594;42.152;24.714;2023-11-21T06:28:12;7136.63;;;5.01;nan
7105;BME280;3594;42.152;24.714;2023-11-21T06:30:38;8732.78;;;5.09;nan
7105;BME280;3594;42.152;24.714;2023-11-21T06:33:03;9376.63;;;5.31;nan
7105;BME280;3594;42.152;24.714;2023-11-21T06:35:29;9380.25;;;5.45;nan
7105;BME280;3594;42.152;24.714;2023-11-21T06:37:57;10974.34;;;5.37;nan
7105;BME280;3594;42.152;24.714;2023-11-21T06:40:23;11618.22;;;5.54;nan
7105;BME280;3594;42.152;24.714;2023-11-21T06:42:50;11302.06;;;5.65;nan
7105;BME280;3594;42.152;24.714;2023-11-21T06:45:16;12573.94;;;5.45;nan
7105;BME280;3594;42.152;24.714;2023-11-21T06:47:42;13535.16;;;5.52;nan
7105;BME280;3594;42.152;24.714;2023-11-21T06:50:08;11936.94;;;5.51;nan
7105;BME280;3594;42.152;24.714;2023-11-21T06:52:33;11301.00;;;5.61;nan
7105;BME280;3594;42.152;24.714;2023-11-21T06:54:59;12578.72;;;5.60;nan
7105;BME280;3594;42.152;24.714;2023-11-21T06:57:25;11301.16;;;5.62;nan
7105;BME280;3594;42.152;24.714;2023-11-21T06:59:50;10345.38;;;5.71;nan
7105;BME280;3594;42.152;24.714;2023-11-21T07:02:16;10989.03;;;5.87;nan
7105;BME280;3594;42.152;24.714;2023-11-21T07:04:45;14512.41;;;6.04;nan
7105;BME280;3594;42.152;24.714;2023-11-21T07:07:11;15471.88;;;6.02;nan
7105;BME280;3594;42.152;24.714;2023-11-21T07:09:37;16430.00;;;5.96;nan
7105;BME280;3594;42.152;24.714;2023-11-21T07:12:02;15153.22;;;6.06;nan
7105;BME280;3594;42.152;24.714;2023-11-21T07:14:29;13877.88;;;6.20;nan
7105;BME280;3594;42.152;24.714;2023-11-21T07:16:54;13559.19;;;6.25;nan
7105;BME280;3594;42.152;24.714;2023-11-21T07:19:20;13553.97;;;6.09;nan
7105;BME280;3594;42.152;24.714;2023-11-21T07:21:47;14838.34;;;6.21;nan
7105;BME280;3594;42.152;24.714;2023-11-21T07:24:15;15159.41;;;6.24;nan
7105;BME280;3594;42.152;24.714;2023-11-21T07:26:41;16123.50;;;6.33;nan
7105;BME280;3594;42.152;24.714;2023-11-21T07:29:06;15482.72;;;6.32;nan
7105;BME280;3594;42.152;24.714;2023-11-21T07:31:32;15165.75;;;6.41;nan
7105;BME280;3594;42.152;24.714;2023-11-21T07:33:59;14845.50;;;6.41;nan
7105;BME280;3594;42.152;24.714;2023-11-21T07:36:25;14538.13;;;6.78;nan
7105;BME280;3594;42.152;24.714;2023-11-21T07:38:51;16788.00;;;6.94;nan
7105;BME280;3594;42.152;24.714;2023-11-21T07:41:17;18392.81;;;6.96;nan
7105;BME280;3594;42.152;24.714;2023-11-21T07:43:44;20651.53;;;7.23;nan
7105;BME280;3594;42.152;24.714;2023-11-21T07:46:10;23884.25;;;7.60;nan
7105;BME280;3594;42.152;24.714;2023-11-21T07:48:38;27742.28;;;7.51;nan
7105;BME280;3594;42.152;24.714;2023-11-21T07:51:03;30013.09;;;7.77;nan
7105;BME280;3594;42.152;24.714;2023-11-21T07:53:29;34857.81;;;7.84;nan
7105;BME280;3594;42.152;24.714;2023-11-21T07:55:56;36807.19;;;7.99;nan
7105;BME280;3594;42.152;24.714;2023-11-21T07:58:21;39288.56;;;7.87;nan
7105;BME280;3594;42.152;24.714;2023-11-21T08:00:46;41112.47;;;8.19;nan
7105;BME280;3594;42.152;24.714;2023-11-21T08:03:15;43706.63;;;8.08;nan
7105;BME280;3594;42.152;24.714;2023-11-21T08:05:41;45333.38;;;8.48;nan
7105;BME280;3594;42.152;24.714;2023-11-21T08:08:06;48556.00;;;8.69;nan
7105;BME280;3594;42.152;24.714;2023-11-21T08:10:32;50700.59;;;8.53;nan
7105;BME280;3594;42.152;24.714;2023-11-21T08:12:58;51574.13;;;8.77;nan
7105;BME280;3594;42.152;24.714;2023-11-21T08:15:23;51771.91;;;8.72;nan
7105;BME280;3594;42.152;24.714;2023-11-21T08:17:49;53366.19;;;9.20;nan
7105;BME280;3594;42.152;24.714;2023-11-21T08:20:14;54078.09;;;9.25;nan
7105;BME280;3594;42.152;24.714;2023-11-21T08:22:46;54406.19;;;9.27;nan
7105;BME280;3594;42.152;24.714;2023-11-21T08:25:12;55071.88;;;9.49;nan
7105;BME280;3594;42.152;24.714;2023-11-21T08:27:38;56405.69;;;9.49;nan
7105;BME280;3594;42.152;24.714;2023-11-21T08:30:04;56776.47;;;9.77;nan
7105;BME280;3594;42.152;24.714;2023-11-21T08:32:30;56745.56;;;9.82;nan
7105;BME280;3594;42.152;24.714;2023-11-21T08:34:57;57245.53;;;10.07;nan
7105;BME280;3594;42.152;24.714;2023-11-21T08:37:23;58017.16;;;10.37;nan
7105;BME280;3594;42.152;24.714;2023-11-21T08:39:49;58620.91;;;10.62;nan
7105;BME280;3594;42.152;24.714;2023-11-21T08:42:14;58915.88;;;10.47;nan
7105;BME280;3594;42.152;24.714;2023-11-21T08:44:40;59468.78;;;10.68;nan
7105;BME280;3594;42.152;24.714;2023-11-21T08:47:06;59317.66;;;10.48;nan
7105;BME280;3594;42.152;24.714;2023-11-21T08:49:31;59487.25;;;10.75;nan
7105;BME280;3594;42.152;24.714;2023-11-21T08:51:58;59662.13;;;10.72;nan
7105;BME280;3594;42.152;24.714;2023-11-21T08:54:26;59500.63;;;10.64;nan
7105;BME280;3594;42.152;24.714;2023-11-21T08:56:52;59455.69;;;10.51;nan
7105;BME280;3594;42.152;24.714;2023-11-21T08:59:18;59701.19;;;10.75;nan
7105;BME280;3594;42.152;24.714;2023-11-21T09:01:45;59559.63;;;10.74;nan
7105;BME280;3594;42.152;24.714;2023-11-21T09:04:11;59703.56;;;10.60;nan
7105;BME280;3594;42.152;24.714;2023-11-21T09:06:37;59720.84;;;11.02;nan
7105;BME280;3594;42.152;24.714;2023-11-21T09:09:03;59765.97;;;11.22;nan
7105;BME280;3594;42.152;24.714;2023-11-21T09:11:31;59901.91;;;11.58;nan
7105;BME280;3594;42.152;24.714;2023-11-21T09:13:59;60107.38;;;11.68;nan
7105;BME280;3594;42.152;24.714;2023-11-21T09:16:25;60290.09;;;11.69;nan
7105;BME280;3594;42.152;24.714;2023-11-21T09:18:51;60496.97;;;12.03;nan
7105;BME280;3594;42.152;24.714;2023-11-21T09:21:16;60683.66;;;12.33;nan
7105;BME280;3594;42.152;24.714;2023-11-21T09:23:44;60741.41;;;12.53;nan
7105;BME280;3594;42.152;24.714;2023-11-21T09:26:09;60680.63;;;12.76;nan
7105;BME280;3594;42.152;24.714;2023-11-21T09:28:37;60715.19;;;12.89;nan
7105;BME280;3594;42.152;24.714;2023-11-21T09:31:04;60818.78;;;12.95;nan
7105;BME280;3594;42.152;24.714;2023-11-21T09:33:30;60780.13;;;12.71;nan
7105;BME280;3594;42.152;24.714;2023-11-21T09:35:56;60793.41;;;12.76;nan
7105;BME280;3594;42.152;24.714;2023-11-21T09:38:22;60834.31;;;13.02;nan
7105;BME280;3594;42.152;24.714;2023-11-21T09:40:47;60802.22;;;13.14;nan
7105;BME280;3594;42.152;24.714;2023-11-21T09:43:16;60986.91;;;12.89;nan
7105;BME280;3594;42.152;24.714;2023-11-21T09:45:46;60852.03;;;12.99;nan
7105;BME280;3594;42.152;24.714;2023-11-21T09:48:13;60928.75;;;12.92;nan
7105;BME280;3594;42.152;24.714;2023-11-21T09:50:41;60984.00;;;13.16;nan
7105;BME280;3594;42.152;24.714;2023-11-21T09:53:22;60906.94;;;13.25;nan
7105;BME280;3594;42.152;24.714;2023-11-21T09:55:51;60978.44;;;13.27;nan
7105;BME280;3594;42.152;24.714;2023-11-21T09:58:17;61036.53;;;13.54;nan
7105;BME280;3594;42.152;24.714;2023-11-21T10:00:51;60974.44;;;13.49;nan
7105;BME280;3594;42.152;24.714;2023-11-21T10:03:17;61019.34;;;13.37;nan
7105;BME280;3594;42.152;24.714;2023-11-21T10:05:44;61040.66;;;13.65;nan
7105;BME280;3594;42.152;24.714;2023-11-21T10:08:11;61020.50;;;13.79;nan
7105;BME280;3594;42.152;24.714;2023-11-21T10:10:41;61099.91;;;13.93;nan
7105;BME280;3594;42.152;24.714;2023-11-21T10:13:11;61026.75;;;13.59;nan
7105;BME280;3594;42.152;24.714;2023-11-21T10:15:38;61076.19;;;13.51;nan
7105;BME280;3594;42.152;24.714;2023-11-21T10:18:04;61032.47;;;13.14;nan
7105;BME280;3594;42.152;24.714;2023-11-21T10:20:31;61001.22;;;13.04;nan
7105;BME280;3594;42.152;24.714;2023-11-21T10:22:59;60967.19;;;12.71;nan
7105;BME280;3594;42.152;24.714;2023-11-21T10:25:26;60986.34;;;13.09;nan
7105;BME280;3594;42.152;24.714;2023-11-21T10:27:57;61063.84;;;13.35;nan
7105;BME280;3594;42.152;24.714;2023-11-21T10:30:24;61039.22;;;13.45;nan
7105;BME280;3594;42.152;24.714;2023-11-21T10:32:58;61073.59;;;13.76;nan
7105;BME280;3594;42.152;24.714;2023-11-21T10:35:25;61070.03;;;13.87;nan
7105;BME280;3594;42.152;24.714;2023-11-21T10:38:00;61127.34;;;14.10;nan
7105;BME280;3594;42.152;24.714;2023-11-21T10:40:27;61154.16;;;14.37;nan
7105;BME280;3594;42.152;24.714;2023-11-21T10:42:53;61163.00;;;14.12;nan
7105;BME280;3594;42.152;24.714;2023-11-21T10:45:18;61099.16;;;14.06;nan
7105;BME280;3594;42.152;24.714;2023-11-21T10:47:44;61099.94;;;13.67;nan
7105;BME280;3594;42.152;24.714;2023-11-21T10:50:09;61127.81;;;13.74;nan
7105;BME280;3594;42.152;24.714;2023-11-21T10:52:37;61089.81;;;14.00;nan
7105;BME280;3594;42.152;24.714;2023-11-21T10:55:24;61150.50;;;14.06;nan
7105;BME280;3594;42.152;24.714;2023-11-21T10:57:53;61111.97;;;14.06;nan
7105;BME280;3594;42.152;24.714;2023-11-21T11:00:19;61134.50;;;14.10;nan
7105;BME280;3594;42.152;24.714;2023-11-21T11:02:49;61252.50;;;13.98;nan
7105;BME280;3594;42.152;24.714;2023-11-21T11:05:19;61160.13;;;14.35;nan
7105;BME280;3594;42.152;24.714;2023-11-21T11:07:48;61030.47;;;14.39;nan
7105;BME280;3594;42.152;24.714;2023-11-21T11:10:18;61201.78;;;14.40;nan
7105;BME280;3594;42.152;24.714;2023-11-21T11:12:47;61178.06;;;14.19;nan
7105;BME280;3594;42.152;24.714;2023-11-21T11:15:13;61156.88;;;14.23;nan
7105;BME280;3594;42.152;24.714;2023-11-21T11:17:39;61108.81;;;14.31;nan
7105;BME280;3594;42.152;24.714;2023-11-21T11:20:06;61300.22;;;14.18;nan
7105;BME280;3594;42.152;24.714;2023-11-21T11:22:54;61143.81;;;14.41;nan
7105;BME280;3594;42.152;24.714;2023-11-21T11:25:51;61140.00;;;14.03;nan
7105;BME280;3594;42.152;24.714;2023-11-21T11:28:29;61161.78;;;13.70;nan
7105;BME280;3594;42.152;24.714;2023-11-21T11:31:21;61094.88;;;13.63;nan
7105;BME280;3594;42.152;24.714;2023-11-21T11:34:23;61107.59;;;13.72;nan
7105;BME280;3594;42.152;24.714;2023-11-21T11:39:48;61033.53;;;13.19;nan
7105;BME280;3594;42.152;24.714;2023-11-21T11:42:15;60990.91;;;13.09;nan
7105;BME280;3594;42.152;24.714;2023-11-21T11:47:22;61068.06;;;13.16;nan
7105;BME280;3594;42.152;24.714;2023-11-21T11:50:04;61043.91;;;13.10;nan
7105;BME280;3594;42.152;24.714;2023-11-21T11:55:03;61023.22;;;13.24;nan
7105;BME280;3594;42.152;24.714;2023-11-21T11:57:34;61014.09;;;13.00;nan
7105;BME280;3594;42.152;24.714;2023-11-21T12:00:19;61209.81;;;13.33;nan
7105;BME280;3594;42.152;24.714;2023-11-21T12:02:57;61031.28;;;12.92;nan
7105;BME280;3594;42.152;24.714;2023-11-21T12:05:25;60960.53;;;13.02;nan
7105;BME280;3594;42.152;24.714;2023-11-21T12:07:57;61025.81;;;12.99;nan
7105;BME280;3594;42.152;24.714;2023-11-21T12:10:25;61090.28;;;13.17;nan
7105;BME280;3594;42.152;24.714;2023-11-21T12:13:02;61049.50;;;13.20;nan
7105;BME280;3594;42.152;24.714;2023-11-21T12:15:28;61033.97;;;13.08;nan
7105;BME280;3594;42.152;24.714;2023-11-21T12:17:57;61069.72;;;13.22;nan
7105;BME280;3594;42.152;24.714;2023-11-21T12:20:25;61001.34;;;12.95;nan
7105;BME280;3594;42.152;24.714;2023-11-21T12:22:55;61002.53;;;12.92;nan
7105;BME280;3594;42.152;24.714;2023-11-21T12:27:48;61004.91;;;13.05;nan
7105;BME280;3594;42.152;24.714;2023-11-21T12:30:18;61156.13;;;12.84;nan
7105;BME280;3594;42.152;24.714;2023-11-21T12:32:47;61028.63;;;13.01;nan
7105;BME280;3594;42.152;24.714;2023-11-21T12:35:12;60966.00;;;12.96;nan
7105;BME280;3594;42.152;24.714;2023-11-21T12:37:39;61052.75;;;13.32;nan
7105;BME280;3594;42.152;24.714;2023-11-21T12:40:09;61072.06;;;13.15;nan
7105;BME280;3594;42.152;24.714;2023-11-21T12:42:44;61081.66;;;13.23;nan
7105;BME280;3594;42.152;24.714;2023-11-21T12:47:47;61023.53;;;13.22;nan
7105;BME280;3594;42.152;24.714;2023-11-21T12:50:14;61105.66;;;13.43;nan
7105;BME280;3594;42.152;24.714;2023-11-21T12:52:46;61030.75;;;13.38;nan
7105;BME280;3594;42.152;24.714;2023-11-21T12:55:22;61048.34;;;13.44;nan
7105;BME280;3594;42.152;24.714;2023-11-21T12:57:52;61067.56;;;13.36;nan
7105;BME280;3594;42.152;24.714;2023-11-21T13:00:26;61058.28;;;13.46;nan
7105;BME280;3594;42.152;24.714;2023-11-21T13:02:56;61082.16;;;13.28;nan
7105;BME280;3594;42.152;24.714;2023-11-21T13:05:43;61107.31;;;13.49;nan
7105;BME280;3594;42.152;24.714;2023-11-21T13:08:11;61104.28;;;13.39;nan
7105;BME280;3594;42.152;24.714;2023-11-21T13:10:44;61013.22;;;13.01;nan
7105;BME280;3594;42.152;24.714;2023-11-21T13:13:13;61072.41;;;13.34;nan
7105;BME280;3594;42.152;24.714;2023-11-21T13:15:55;61040.00;;;13.27;nan
7105;BME280;3594;42.152;24.714;2023-11-21T13:18:26;61013.91;;;12.93;nan
7105;BME280;3594;42.152;24.714;2023-11-21T13:20:53;61006.59;;;13.11;nan
7105;BME280;3594;42.152;24.714;2023-11-21T13:23:20;61011.75;;;13.07;nan
7105;BME280;3594;42.152;24.714;2023-11-21T13:25:45;61201.16;;;12.83;nan
7105;BME280;3594;42.152;24.714;2023-11-21T13:28:13;60969.72;;;12.97;nan
7105;BME280;3594;42.152;24.714;2023-11-21T13:30:41;60988.34;;;12.88;nan
7105;BME280;3594;42.152;24.714;2023-11-21T13:33:07;61026.69;;;12.97;nan
7105;BME280;3594;42.152;24.714;2023-11-21T13:35:35;61018.47;;;12.92;nan
7105;BME280;3594;42.152;24.714;2023-11-21T13:38:16;60980.03;;;12.92;nan
7105;BME280;3594;42.152;24.714;2023-11-21T13:40:49;61092.16;;;13.01;nan
7105;BME280;3594;42.152;24.714;2023-11-21T13:43:18;61056.00;;;12.73;nan
7105;BME280;3594;42.152;24.714;2023-11-21T13:45:46;61065.59;;;13.07;nan
7105;BME280;3594;42.152;24.714;2023-11-21T13:48:13;61007.28;;;12.98;nan
7105;BME280;3594;42.152;24.714;2023-11-21T13:50:50;61022.41;;;12.96;nan
7105;BME280;3594;42.152;24.714;2023-11-21T13:53:34;60997.56;;;13.03;nan
7105;BME280;3594;42.152;24.714;2023-11-21T13:56:02;60979.34;;;13.01;nan